TimeCST,TemperatureF,Dew PointF,Humidity,Sea Level PressureIn,VisibilityMPH,Wind Direction,Wind SpeedMPH,Gust SpeedMPH,PrecipitationIn,Events,Conditions,WindDirDegrees,DateUTC
12:53 AM,45.0,34.0,65,29.61,10.0,ESE,13.8,-,N/A,,Overcast,120,2012-12-15 06:53:00
1:22 AM,42.8,35.6,76,29.62,10.0,SE,10.4,-,0.01,Rain,Light Rain,140,2012-12-15 07:22:00
1:53 AM,42.1,36.0,79,29.63,10.0,SE,8.1,-,0.03,Rain,Light Rain,140,2012-12-15 07:53:00
2:53 AM,42.1,39.0,89,29.62,2.5,SE,11.5,-,0.08,Rain,Rain,130,2012-12-15 08:53:00
3:04 AM,42.8,39.2,87,29.59,3.0,ESE,10.4,-,0.03,Rain,Rain,120,2012-12-15 09:04:00
3:17 AM,42.8,39.2,87,29.58,4.0,ESE,10.4,-,0.04,Rain,Light Rain,110,2012-12-15 09:17:00
3:33 AM,41.0,39.2,93,29.57,4.0,ESE,10.4,-,0.07,Rain,Light Rain,120,2012-12-15 09:33:00
3:46 AM,41.0,39.2,93,29.57,5.0,ESE,12.7,-,0.08,Rain,Light Rain,120,2012-12-15 09:46:00
3:53 AM,41.0,39.0,93,29.59,6.0,ESE,11.5,-,0.09,Rain,Light Rain,120,2012-12-15 09:53:00
4:53 AM,39.9,37.9,93,29.55,4.0,East,10.4,-,0.14,Rain,Rain,100,2012-12-15 10:53:00
5:13 AM,39.2,37.4,93,29.52,3.0,ESE,9.2,-,0.03,Rain,Rain,110,2012-12-15 11:13:00
5:33 AM,39.2,37.4,93,29.51,4.0,East,10.4,-,0.05,Rain,Rain,100,2012-12-15 11:33:00
5:53 AM,39.9,39.0,97,29.53,5.0,ESE,10.4,-,0.07,Rain,Light Rain,110,2012-12-15 11:53:00
6:29 AM,41.0,39.2,93,29.50,7.0,ESE,10.4,-,0.01,Rain,Light Rain,110,2012-12-15 12:29:00
6:53 AM,39.9,39.0,97,29.53,5.0,ESE,9.2,-,0.01,,Overcast,110,2012-12-15 12:53:00
7:53 AM,39.9,37.9,93,29.52,5.0,ESE,9.2,-,N/A,,Overcast,120,2012-12-15 13:53:00
8:02 AM,39.2,37.4,93,29.49,5.0,ESE,9.2,-,N/A,,Overcast,120,2012-12-15 14:02:00
8:53 AM,39.9,37.9,93,29.51,5.0,SE,9.2,-,N/A,,Overcast,130,2012-12-15 14:53:00
9:53 AM,41.0,39.9,96,29.51,4.0,SE,8.1,-,N/A,,Overcast,130,2012-12-15 15:53:00
10:53 AM,41.0,39.9,96,29.52,4.0,SE,3.5,-,N/A,,Overcast,140,2012-12-15 16:53:00
11:53 AM,42.1,39.9,92,29.51,5.0,Calm,Calm,-,N/A,,Overcast,0,2012-12-15 17:53:00
12:53 PM,43.0,39.9,89,29.49,9.0,West,4.6,-,N/A,,Overcast,260,2012-12-15 18:53:00
1:41 PM,42.8,39.2,87,29.47,9.0,West,5.8,-,N/A,,Overcast,270,2012-12-15 19:41:00
1:53 PM,43.0,39.9,89,29.49,8.0,West,5.8,-,N/A,,Overcast,280,2012-12-15 19:53:00
2:01 PM,42.8,39.2,87,29.47,9.0,West,5.8,-,N/A,,Overcast,280,2012-12-15 20:01:00
2:44 PM,42.8,39.2,87,29.48,9.0,NW,6.9,-,0.00,,Overcast,310,2012-12-15 20:44:00
2:53 PM,43.0,39.9,89,29.50,8.0,NW,6.9,-,0.00,,Overcast,310,2012-12-15 20:53:00
3:02 PM,42.8,39.2,87,29.48,8.0,NW,8.1,-,N/A,,Overcast,320,2012-12-15 21:02:00
3:28 PM,41.0,39.2,93,29.49,7.0,NNW,9.2,-,N/A,,Overcast,330,2012-12-15 21:28:00
3:37 PM,41.0,37.4,87,29.50,7.0,NNW,10.4,-,N/A,,Overcast,330,2012-12-15 21:37:00
3:53 PM,39.9,37.9,93,29.53,7.0,NNW,9.2,-,N/A,,Overcast,340,2012-12-15 21:53:00
4:09 PM,39.2,37.4,93,29.51,7.0,NNW,9.2,-,0.00,Rain,Light Rain,330,2012-12-15 22:09:00
4:31 PM,39.2,37.4,93,29.52,5.0,NNW,13.8,-,0.00,Rain,Light Rain,330,2012-12-15 22:31:00
4:53 PM,37.9,35.1,89,29.55,4.0,NNW,12.7,-,0.00,Rain,Light Rain,330,2012-12-15 22:53:00
5:53 PM,37.0,34.0,89,29.60,6.0,NW,9.2,-,0.00,,Overcast,320,2012-12-15 23:53:00
6:53 PM,34.0,32.0,92,29.64,3.0,WNW,12.7,-,0.01,Snow,Light Snow,300,2012-12-16 00:53:00
7:00 PM,33.8,32.0,93,29.60,2.5,WNW,10.4,-,0.00,Snow,Light Snow,290,2012-12-16 01:00:00
7:09 PM,33.8,32.0,93,29.61,1.8,WNW,11.5,-,0.01,Snow,Light Snow,290,2012-12-16 01:09:00
7:23 PM,33.8,32.0,93,29.60,1.8,WNW,12.7,-,0.01,Snow,Light Snow,300,2012-12-16 01:23:00
7:33 PM,33.8,32.0,93,29.60,2.5,WNW,11.5,-,0.01,Snow,Light Snow,300,2012-12-16 01:33:00
7:48 PM,33.8,32.0,93,29.61,3.0,WNW,15.0,-,0.01,Snow,Light Snow,290,2012-12-16 01:48:00
7:53 PM,34.0,32.0,92,29.64,3.0,WNW,13.8,-,0.01,Snow,Light Snow,290,2012-12-16 01:53:00
8:12 PM,33.8,30.2,87,29.61,2.5,WNW,15.0,-,0.00,Snow,Light Snow,300,2012-12-16 02:12:00
8:26 PM,33.8,30.2,87,29.61,2.0,WNW,15.0,-,0.00,Snow,Light Snow,300,2012-12-16 02:26:00
8:44 PM,33.8,30.2,87,29.61,2.5,NW,16.1,-,0.01,Snow,Light Snow,310,2012-12-16 02:44:00
8:53 PM,34.0,30.9,89,29.64,4.0,NW,15.0,-,0.01,,Overcast,310,2012-12-16 02:53:00
9:15 PM,33.8,30.2,87,29.61,5.0,WNW,12.7,23.0,N/A,,Overcast,300,2012-12-16 03:15:00
9:53 PM,34.0,30.9,89,29.63,5.0,NW,15.0,21.9,N/A,,Mostly Cloudy,320,2012-12-16 03:53:00
10:11 PM,33.8,30.2,87,29.60,5.0,NNW,16.1,-,N/A,,Scattered Clouds,330,2012-12-16 04:11:00
10:46 PM,32.0,30.2,93,29.62,4.0,WNW,12.7,-,N/A,,Mostly Cloudy,300,2012-12-16 04:46:00
10:53 PM,32.0,30.0,92,29.66,4.0,WNW,10.4,-,N/A,,Mostly Cloudy,300,2012-12-16 04:53:00
11:53 PM,33.1,30.0,89,29.68,3.0,WNW,11.5,-,N/A,,Overcast,290,2012-12-16 05:53:00